Terminal Aerodrome Forecast
Issued by NWS

Home | Current Version | Previous Version | Text Only | Print | Product List | Glossary On
Versions: 1 2 3 4 5 6 7 8 9 10 11 12 13 14 15 16 17 18 19 20 21 22 23 24 25 26 27 28 29 30
000
FTAK31 PANC 041043 AAB
TAFADQ
TAF AMD
PADQ 041043Z 0411/0506 07015KT 2SM -RA BR BKN007 OVC012
      TEMPO 0411/0415 3SM -RA BR SCT007 OVC012
     FM041500 06017G24KT 4SM -RA BR OVC007
     FM042100 09011KT P6SM -SHRA SCT007 OVC012
     FM050200 11007KT P6SM VCSH BKN012 OVC025=

USA.gov is the U.S. government's official web portal to all federal, state and local government web resources and services.